createdAt,value
2019-04-03T00:02:18.831Z,1.00
2019-04-03T00:04:49.214Z,1.00
2019-04-03T00:07:19.523Z,1.00
2019-04-03T00:09:49.867Z,1.00
2019-04-03T00:12:20.376Z,1.00
2019-04-03T00:14:50.724Z,1.00
2019-04-03T00:17:21.104Z,1.00
2019-04-03T00:19:51.400Z,1.00
2019-04-03T00:22:22.254Z,1.00
2019-04-03T00:24:52.870Z,1.00
2019-04-03T00:27:23.195Z,1.00
2019-04-03T00:29:53.590Z,86.40
2019-04-03T00:32:23.961Z,1.00
2019-04-03T00:34:54.237Z,1.00
2019-04-03T00:37:24.571Z,1.00
2019-04-03T00:39:55.644Z,99.90
2019-04-03T00:42:25.998Z,1.00
2019-04-03T00:44:56.269Z,99.90
2019-04-03T00:47:27.759Z,28.30
2019-04-03T00:49:58.170Z,99.90
2019-04-03T00:52:28.555Z,99.90
2019-04-03T00:54:58.887Z,1.00
2019-04-03T00:57:29.323Z,3.80
2019-04-03T00:59:59.644Z,42.40
2019-04-03T01:02:30.030Z,1.00
2019-04-03T01:05:00.473Z,13.80
2019-04-03T01:07:30.932Z,99.90
2019-04-03T01:10:01.552Z,99.90
2019-04-03T01:12:32.938Z,1.00
2019-04-03T01:15:03.295Z,1.00
2019-04-03T01:17:34.878Z,1.00
2019-04-03T01:20:07.807Z,99.90
2019-04-03T01:22:38.087Z,99.90
2019-04-03T01:25:09.321Z,22.60
2019-04-03T01:27:41.581Z,99.90
2019-04-03T01:30:12.160Z,62.60
2019-04-03T01:32:46.090Z,99.90
2019-04-03T01:35:17.460Z,1.00
2019-04-03T01:37:49.275Z,99.90
2019-04-03T01:40:21.249Z,1.00
2019-04-03T01:42:52.891Z,99.90
2019-04-03T01:45:25.404Z,99.90
2019-04-03T01:47:57.421Z,64.00
2019-04-03T01:50:28.709Z,1.00
2019-04-03T01:53:01.793Z,1.00
2019-04-03T01:55:35.168Z,1.00
2019-04-03T01:58:06.551Z,1.00
2019-04-03T02:00:37.646Z,1.00
2019-04-03T02:03:10.304Z,1.00
2019-04-03T02:05:43.257Z,33.60
2019-04-03T02:08:14.736Z,99.90
2019-04-03T02:10:45.030Z,99.90
2019-04-03T02:13:15.362Z,99.90
2019-04-03T02:15:45.689Z,99.90
2019-04-03T02:18:16.147Z,92.90
2019-04-03T02:20:46.531Z,1.00
2019-04-03T02:23:16.876Z,99.90
2019-04-03T02:25:47.185Z,99.90
2019-04-03T02:28:17.613Z,99.90
2019-04-03T02:30:47.850Z,99.90
2019-04-03T02:33:18.179Z,99.90
2019-04-03T02:35:48.816Z,99.90
2019-04-03T02:38:21.393Z,99.90
2019-04-03T02:40:51.119Z,1.00
2019-04-03T02:43:21.453Z,36.40
2019-04-03T02:45:51.846Z,45.10
2019-04-03T02:48:24.048Z,97.40
2019-04-03T02:50:54.327Z,99.90
2019-04-03T02:53:24.888Z,99.90
2019-04-03T02:55:55.323Z,99.90
2019-04-03T02:58:25.900Z,99.90
2019-04-03T03:00:56.237Z,99.90
2019-04-03T03:03:26.740Z,1.00
2019-04-03T03:05:59.353Z,99.90
2019-04-03T03:08:28.986Z,99.90
2019-04-03T03:10:59.262Z,1.00
2019-04-03T03:13:33.981Z,56.10
2019-04-03T03:16:02.657Z,91.20
2019-04-03T03:18:32.997Z,1.00
2019-04-03T03:21:04.786Z,1.00
2019-04-03T03:23:35.324Z,1.00
2019-04-03T03:26:06.281Z,1.00
2019-04-03T03:28:36.585Z,1.00
2019-04-03T03:31:07.832Z,4.30
2019-04-03T03:33:41.214Z,1.00
2019-04-03T03:36:11.353Z,1.00
2019-04-03T03:38:41.902Z,22.80
2019-04-03T03:41:13.524Z,1.00
2019-04-03T03:43:45.318Z,1.00
2019-04-03T03:46:16.534Z,1.00
2019-04-03T03:48:47.076Z,1.00
2019-04-03T03:51:17.815Z,1.00
2019-04-03T03:53:49.072Z,1.00
2019-04-03T03:56:20.924Z,29.10
2019-04-03T03:58:51.998Z,1.00
2019-04-03T04:01:22.342Z,1.00
2019-04-03T04:03:53.023Z,1.00
2019-04-03T04:06:25.565Z,1.00
2019-04-03T04:08:55.362Z,1.00
2019-04-03T04:11:25.873Z,1.00
2019-04-03T04:13:56.769Z,1.00
2019-04-03T04:16:28.664Z,1.00
2019-04-03T04:18:59.188Z,1.00
2019-04-03T04:21:32.916Z,1.00
2019-04-03T04:24:06.464Z,1.00
2019-04-03T04:26:38.456Z,1.00
2019-04-03T04:29:13.884Z,1.00
2019-04-03T04:31:50.311Z,1.00
2019-04-03T04:34:23.858Z,1.00
2019-04-03T04:37:02.129Z,1.00
2019-04-03T04:39:38.845Z,1.00
2019-04-03T04:42:09.527Z,1.00
2019-04-03T04:45:36.119Z,1.00
2019-04-03T04:48:06.719Z,1.00
2019-04-03T04:50:37.292Z,56.90
2019-04-03T04:53:10.552Z,1.00
2019-04-03T04:55:43.660Z,21.00
2019-04-03T04:58:16.033Z,1.00
2019-04-03T05:00:47.614Z,1.00
2019-04-03T05:06:33.837Z,1.00
2019-04-03T05:09:05.976Z,1.00
2019-04-03T05:11:47.717Z,1.00
2019-04-03T05:14:18.488Z,94.00
2019-04-03T05:16:51.331Z,1.00
2019-04-03T05:19:22.069Z,1.00
2019-04-03T05:22:12.639Z,80.30
2019-04-03T05:24:44.542Z,32.80
2019-04-03T05:27:18.254Z,24.10
2019-04-03T05:29:57.162Z,1.00
2019-04-03T05:32:27.809Z,94.90
2019-04-03T05:34:58.818Z,1.00
2019-04-03T05:37:33.158Z,1.00
2019-04-03T05:40:03.692Z,1.00
2019-04-03T05:42:36.487Z,1.00
2019-04-03T05:45:07.956Z,1.00
2019-04-03T05:47:39.270Z,1.00
2019-04-03T05:50:10.386Z,1.00
2019-04-03T05:52:41.006Z,1.00
2019-04-03T05:55:11.540Z,99.40
2019-04-03T05:57:44.932Z,99.90
2019-04-03T06:00:14.046Z,99.90
2019-04-03T06:02:44.459Z,99.90
2019-04-03T06:05:14.929Z,1.00
2019-04-03T06:07:45.362Z,99.90
2019-04-03T06:10:15.713Z,1.00
2019-04-03T06:12:46.666Z,1.00
2019-04-03T06:15:17.283Z,1.00
2019-04-03T06:17:50.180Z,19.90
2019-04-03T06:20:19.762Z,1.00
2019-04-03T06:22:50.643Z,1.00
2019-04-03T06:25:22.127Z,55.10
2019-04-03T06:27:52.652Z,99.90
2019-04-03T06:30:25.040Z,99.90
2019-04-03T06:32:55.437Z,99.90
2019-04-03T06:35:25.876Z,99.90
2019-04-03T06:37:57.412Z,86.80
2019-04-03T06:40:27.768Z,1.00
2019-04-03T06:42:58.185Z,1.00
2019-04-03T06:45:28.747Z,1.00
2019-04-03T06:47:59.092Z,1.00
2019-04-03T06:50:29.395Z,99.00
2019-04-03T06:52:59.759Z,54.70
2019-04-03T06:55:30.262Z,12.60
2019-04-03T06:58:00.895Z,35.60
2019-04-03T07:00:32.495Z,99.90
2019-04-03T07:03:03.833Z,99.90
2019-04-03T07:05:35.469Z,1.00
2019-04-03T07:08:06.129Z,86.40
2019-04-03T07:10:37.011Z,99.90
2019-04-03T07:13:07.389Z,24.80
2019-04-03T07:15:37.761Z,1.00
2019-04-03T07:18:08.352Z,1.00
2019-04-03T07:20:38.756Z,11.80
2019-04-03T07:23:09.093Z,1.00
2019-04-03T07:25:39.395Z,1.00
2019-04-03T07:28:09.782Z,99.90
2019-04-03T07:30:40.085Z,1.00
2019-04-03T07:33:10.672Z,1.00
2019-04-03T07:35:40.978Z,1.00
2019-04-03T07:38:11.338Z,1.00
2019-04-03T07:40:42.022Z,1.00
2019-04-03T07:43:12.522Z,1.00
2019-04-03T07:45:43.980Z,1.00
2019-04-03T07:48:14.427Z,1.00
2019-04-03T07:50:44.927Z,1.00
2019-04-03T07:53:15.621Z,1.00
2019-04-03T07:55:46.074Z,1.00
2019-04-03T07:58:16.524Z,1.00
2019-04-03T08:00:46.848Z,1.00
2019-04-03T08:03:20.262Z,1.00
2019-04-03T08:05:49.507Z,1.00
2019-04-03T08:08:20.039Z,1.00
2019-04-03T08:10:50.454Z,1.00
2019-04-03T08:13:21.090Z,1.00
2019-04-03T08:15:51.381Z,1.00
2019-04-03T08:18:21.995Z,1.00
2019-04-03T08:20:52.522Z,1.00
2019-04-03T08:23:22.876Z,1.00
2019-04-03T08:25:54.307Z,1.00
2019-04-03T08:28:28.029Z,1.00
2019-04-03T08:30:57.312Z,1.00
2019-04-03T08:33:28.194Z,1.00
2019-04-03T08:35:58.881Z,1.00
2019-04-03T08:38:29.305Z,1.00
2019-04-03T08:41:02.927Z,1.00
2019-04-03T08:43:33.038Z,1.00
2019-04-03T08:46:03.391Z,1.00
2019-04-03T08:48:34.696Z,1.00
2019-04-03T08:51:05.018Z,1.00
2019-04-03T08:53:38.479Z,1.00
2019-04-03T08:56:07.327Z,1.00
2019-04-03T08:58:37.670Z,1.00
2019-04-03T09:01:10.394Z,1.00
2019-04-03T09:03:39.949Z,1.00
2019-04-03T09:06:10.267Z,1.00
2019-04-03T09:08:40.725Z,1.00
2019-04-03T09:11:11.091Z,1.00
2019-04-03T09:13:41.492Z,1.00
2019-04-03T09:16:12.051Z,1.00
2019-04-03T09:18:42.412Z,1.00
2019-04-03T09:21:14.882Z,1.00
2019-04-03T09:23:44.974Z,1.00
2019-04-03T09:26:15.385Z,1.00
2019-04-03T09:28:45.973Z,1.00
2019-04-03T09:31:17.135Z,1.00
2019-04-03T09:33:48.351Z,1.00
2019-04-03T09:36:18.629Z,1.00
2019-04-03T09:38:49.239Z,1.00
2019-04-03T09:41:20.148Z,1.00
2019-04-03T09:43:51.901Z,1.00
2019-04-03T09:46:22.721Z,1.00
2019-04-03T09:48:53.100Z,1.00
2019-04-03T09:51:23.602Z,1.00
2019-04-03T09:53:53.964Z,1.00
2019-04-03T09:56:24.545Z,1.00
2019-04-03T09:58:56.536Z,99.90
2019-04-03T10:01:27.004Z,1.00
2019-04-03T10:03:57.342Z,99.90
2019-04-03T10:06:30.512Z,99.90
2019-04-03T10:08:59.910Z,1.00
2019-04-03T10:11:30.272Z,1.00
2019-04-03T10:14:00.779Z,1.00
2019-04-03T10:16:31.173Z,99.90
2019-04-03T10:19:01.604Z,99.90
2019-04-03T10:21:33.742Z,1.00
2019-04-03T10:24:04.266Z,99.90
2019-04-03T10:26:34.912Z,99.90
2019-04-03T10:29:05.995Z,99.90
2019-04-03T10:31:36.320Z,1.00
2019-04-03T10:34:06.672Z,99.90
2019-04-03T10:36:36.995Z,99.90
2019-04-03T10:39:10.139Z,99.90
2019-04-03T10:41:40.563Z,99.90
2019-04-03T10:44:10.959Z,99.90
2019-04-03T10:46:41.290Z,99.90
2019-04-03T10:49:11.667Z,99.90
2019-04-03T10:51:42.115Z,99.90
2019-04-03T10:54:12.568Z,99.90
2019-04-03T10:56:43.130Z,99.90
2019-04-03T10:59:15.884Z,99.90
2019-04-03T11:01:45.912Z,99.90
2019-04-03T11:04:16.365Z,99.90
2019-04-03T11:06:47.263Z,99.90
2019-04-03T11:09:17.793Z,99.90
2019-04-03T11:11:48.124Z,99.90
2019-04-03T11:14:18.735Z,99.90
2019-04-03T11:16:49.033Z,99.90
2019-04-03T11:19:20.240Z,99.90
2019-04-03T11:21:50.912Z,99.90
2019-04-03T11:24:21.328Z,99.90
2019-04-03T11:26:52.561Z,1.00
2019-04-03T11:29:23.461Z,99.90
2019-04-03T11:31:53.682Z,99.90
2019-04-03T11:34:24.022Z,99.90
2019-04-03T11:36:54.349Z,99.90
2019-04-03T11:39:24.794Z,99.90
2019-04-03T11:41:56.270Z,99.90
2019-04-03T11:44:27.828Z,99.90
2019-04-03T11:46:58.119Z,99.90
2019-04-03T11:49:28.466Z,99.90
2019-04-03T11:52:00.983Z,99.90
2019-04-03T11:54:30.964Z,99.90
2019-04-03T11:57:01.306Z,99.90
2019-04-03T11:59:32.876Z,99.90
2019-04-03T12:02:03.369Z,99.90
2019-04-03T12:04:33.744Z,99.90
2019-04-03T12:07:04.077Z,99.90
2019-04-03T12:09:34.803Z,99.90
2019-04-03T12:12:05.491Z,99.90
2019-04-03T12:14:35.973Z,99.90
2019-04-03T12:17:06.653Z,99.90
2019-04-03T12:19:37.863Z,99.90
2019-04-03T12:22:08.913Z,99.90
2019-04-03T12:24:39.547Z,99.90
2019-04-03T12:27:09.932Z,99.90
2019-04-03T12:29:40.687Z,99.90
2019-04-03T14:12:21.372Z,99.90
2019-04-03T15:59:38.696Z,99.90
2019-04-03T16:02:12.041Z,1.00
2019-04-03T16:04:41.089Z,99.90
2019-04-03T16:07:11.550Z,99.90
2019-04-03T16:09:41.886Z,99.90
2019-04-03T16:12:12.471Z,99.90
2019-04-03T16:14:43.100Z,99.90
2019-04-03T16:17:13.509Z,99.90
2019-04-03T16:19:45.092Z,99.90
2019-04-03T16:22:16.137Z,99.90
2019-04-03T16:24:46.653Z,99.90
2019-04-03T16:27:17.383Z,99.90
2019-04-03T16:29:48.130Z,99.90
2019-04-03T16:32:18.539Z,99.90
2019-04-03T16:34:48.854Z,1.00
2019-04-03T16:37:21.486Z,1.00
2019-04-03T16:39:51.364Z,99.90
2019-04-03T16:42:21.739Z,99.90
2019-04-03T16:44:52.266Z,99.90
2019-04-03T16:47:23.175Z,1.00
2019-04-03T16:49:54.894Z,1.00
2019-04-03T16:52:25.555Z,1.00
2019-04-03T16:54:55.864Z,99.90
2019-04-03T16:57:26.509Z,99.90
2019-04-03T16:59:56.798Z,99.90
2019-04-03T17:02:29.359Z,99.90
2019-04-03T17:04:59.654Z,99.90
2019-04-03T17:07:30.359Z,99.90
2019-04-03T17:10:00.704Z,1.00
2019-04-03T17:12:31.060Z,1.00
2019-04-03T17:15:01.917Z,99.90
2019-04-03T17:17:32.744Z,99.90
2019-04-03T17:20:03.216Z,99.90
2019-04-03T17:22:33.580Z,1.00
2019-04-03T17:25:04.578Z,99.90
2019-04-03T17:27:34.927Z,99.90
2019-04-03T17:30:06.420Z,99.90
2019-04-03T17:32:37.676Z,1.00
2019-04-03T17:35:08.709Z,1.00
2019-04-03T17:37:39.359Z,1.00
2019-04-03T17:40:12.059Z,1.00
2019-04-03T17:42:42.414Z,1.00
2019-04-03T17:45:15.559Z,1.00
2019-04-03T18:13:31.644Z,1.00
2019-04-03T18:16:01.985Z,1.00
2019-04-03T18:18:33.388Z,1.00
2019-04-03T18:21:04.540Z,1.00
2019-04-03T18:23:35.012Z,1.00
2019-04-03T18:26:05.504Z,99.90
2019-04-03T18:28:36.339Z,1.00
2019-04-03T18:31:06.685Z,1.00
2019-04-03T18:33:37.096Z,1.00
2019-04-03T18:36:08.437Z,1.00
2019-04-03T18:38:39.151Z,1.00
2019-04-03T18:41:09.461Z,1.00
2019-04-03T18:43:39.855Z,1.00
2019-04-03T18:46:10.188Z,1.00
2019-04-03T18:48:52.561Z,1.00
2019-04-03T18:51:12.591Z,1.00
2019-04-03T18:53:42.979Z,1.00
2019-04-03T18:56:15.611Z,1.00
2019-04-03T18:58:46.395Z,1.00
2019-04-03T19:01:17.139Z,1.00
2019-04-03T19:03:47.622Z,1.00
2019-04-03T19:06:17.951Z,1.00
2019-04-03T19:08:50.138Z,1.00
2019-04-03T19:11:20.276Z,1.00
2019-04-03T19:13:50.708Z,99.90
2019-04-03T19:16:29.404Z,1.00
2019-04-03T20:07:32.325Z,1.00
2019-04-03T20:20:44.257Z,1.00
2019-04-03T20:23:14.626Z,1.00
2019-04-03T20:25:45.949Z,1.00
2019-04-03T20:28:17.114Z,1.00
2019-04-03T20:30:47.751Z,1.00
2019-04-03T20:33:18.108Z,1.00
2019-04-03T20:35:49.681Z,1.00
2019-04-03T20:38:20.560Z,1.00
2019-04-03T20:40:50.929Z,1.00
2019-04-03T20:43:21.404Z,1.00
2019-04-03T20:45:51.770Z,1.00
2019-04-03T20:48:22.148Z,1.00
2019-04-03T20:50:52.627Z,1.00
2019-04-03T20:53:22.999Z,1.00
2019-04-03T20:55:53.323Z,1.00
2019-04-03T20:58:23.793Z,1.00
2019-04-03T21:01:05.931Z,1.00
2019-04-03T21:06:38.247Z,1.00
2019-04-03T21:09:08.728Z,1.00
2019-04-03T21:11:40.227Z,1.00
2019-04-03T21:14:11.397Z,1.00
2019-04-03T21:16:47.746Z,1.00
2019-04-03T21:19:17.307Z,1.00
2019-04-03T21:21:47.746Z,1.00
2019-04-03T21:24:18.163Z,1.00
2019-04-03T21:26:48.504Z,99.90
2019-04-03T22:05:28.605Z,1.00
2019-04-03T22:07:58.931Z,1.00
2019-04-03T22:10:32.785Z,1.00
2019-04-03T22:13:02.327Z,1.00
2019-04-03T22:15:32.699Z,1.00
2019-04-03T22:18:03.027Z,1.00
2019-04-03T22:20:33.374Z,1.00
2019-04-03T22:23:04.802Z,1.00
2019-04-03T22:25:36.091Z,1.00
2019-04-03T22:28:06.496Z,1.00
2019-04-03T22:30:36.792Z,1.00
2019-04-03T22:33:07.125Z,1.00
2019-04-03T22:35:37.404Z,1.00
2019-04-03T22:38:07.746Z,1.00
2019-04-03T22:40:39.103Z,1.00
2019-04-03T22:43:09.998Z,1.00
2019-04-03T22:45:40.293Z,1.00
2019-04-03T22:48:10.631Z,1.00
2019-04-03T22:50:40.927Z,1.00
2019-04-03T22:53:11.319Z,1.00
2019-04-03T22:55:41.586Z,1.00
2019-04-03T22:58:11.919Z,1.00
2019-04-03T23:00:43.180Z,1.00
2019-04-03T23:03:13.536Z,1.00
2019-04-03T23:05:43.805Z,1.00
2019-04-03T23:08:14.158Z,1.00
2019-04-03T23:10:44.492Z,1.00
2019-04-03T23:13:14.907Z,1.00
2019-04-03T23:15:45.292Z,1.00
2019-04-03T23:18:15.953Z,1.00
2019-04-03T23:20:47.059Z,1.00
